Terminal Aerodrome Forecast
Issued by NWS

Current Version | Previous Version | Graphics & Text | Print | Product List | Glossary Off
Versions: 1 2 3 4 5 6 7 8 9 10 11 12 13 14 15

000
FTUS42 KILM 251120
TAFCRE
TAF
KCRE 251120Z 2512/2612 20003KT P6SM BKN050 BKN250
     FM251400 19007KT P6SM SCT040 BKN120
     FM251700 16011KT P6SM BKN120
     FM260100 15005KT P6SM SCT250
     FM260600 15005KT P6SM BKN100
     FM260900 15004KT P6SM SCT250=

USA.gov is the U.S. government's official web portal to all federal, state and local government web resources and services.